CheckWX is a tool to help pilots better visualize weather data.  It is not intended as a substitute for an official pre-flight weather briefing.

15:12:08 UTC

KYKM METAR
Yakima Air Terminal / McAllister Field Airport
Yakima, Washington, USA
Current

19 mins ago

KYKM 291453Z 19016G29KT 10SM FEW065 BKN090 09/02 A2982 RMK AO2 PK WND 18029/1355 SLP099 T00890017 55001
Observed
Mar-29 @ 14:53 UTC
Wind
  • 190° at 16 KTS
  • Gusting to 29 KTS
Visibility
10 SM
Flight Rules
VFR
Cloud Levels
  • Few at 6,500' AGL
  • Broken at 9,000' AGL
Temperature
C / 48°F
Dewpoint
C / 36°F
Humidity
62%
Altimeter
29.82" Hg
Pressure
1009.82 hPa
Previous

1 hour ago

KYKM 291353Z 19017G26KT 10SM BKN085 09/02 A2982 RMK AO2 PK WND 19026/1340 SLP097 T00890022
Observed
Mar-29 @ 13:53 UTC
Wind
  • 190° at 17 KTS
  • Gusting to 26 KTS
Visibility
10 SM
Flight Rules
VFR
Cloud Levels
  • Broken at 8,500' AGL
Temperature
C / 48°F
Dewpoint
C / 36°F
Humidity
62%
Altimeter
29.82" Hg
Pressure
1009.82 hPa
Previous

2 hours ago

KYKM 291253Z 18014G22KT 10SM BKN100 09/02 A2982 RMK AO2 SLP098 T00890017
Observed
Mar-29 @ 12:53 UTC
Wind
  • 180° at 14 KTS
  • Gusting to 22 KTS
Visibility
10 SM
Flight Rules
VFR
Cloud Levels
  • Broken at 10,000' AGL
Temperature
C / 48°F
Dewpoint
C / 36°F
Humidity
62%
Altimeter
29.82" Hg
Pressure
1009.82 hPa